Time;durP1;ratioP1;P1;durP2;ratioP2;P2;SDS_P1;SDS_P2;PMS_P1;PMS_P2;Temp;Humidity;BMP_temperature;BMP_pressure;BME280_temperature;BME280_humidity;BME280_pressure;Samples;Min_cycle;Max_cycle;Signal;HPM_P1;HPM_P2
2022/12/07 00:01:26;;;;;;;7.03;5.83;;;7.40;99.90;;;;;;5032930;28;20230;-58
2022/12/07 00:03:56;;;;;;;6.80;5.57;;;7.30;99.90;;;;;;5032624;28;20230;-57
2022/12/07 00:06:25;;;;;;;6.07;4.87;;;7.30;99.90;;;;;;5032296;28;20214;-57
2022/12/07 00:08:52;;;;;;;8.53;5.50;;;7.30;99.90;;;;;;5032335;28;20308;-57
2022/12/07 00:11:21;;;;;;;6.73;5.40;;;7.30;99.90;;;;;;5032736;28;20226;-57
2022/12/07 00:13:48;;;;;;;6.53;5.50;;;7.30;99.90;;;;;;5032748;28;20729;-57
2022/12/07 00:16:17;;;;;;;7.27;5.67;;;7.30;99.90;;;;;;5032360;28;20861;-57
2022/12/07 00:18:44;;;;;;;7.93;5.57;;;7.20;99.90;;;;;;5032469;28;20210;-57
2022/12/07 00:21:13;;;;;;;6.97;5.97;;;7.20;99.90;;;;;;5031799;28;20238;-58
2022/12/07 00:23:43;;;;;;;7.50;5.33;;;7.20;99.90;;;;;;5032208;28;20226;-57
2022/12/07 00:26:12;;;;;;;6.73;5.57;;;7.20;99.90;;;;;;5032057;28;20222;-58
2022/12/07 00:28:39;;;;;;;6.10;5.07;;;7.10;99.90;;;;;;5032445;28;20206;-57
2022/12/07 00:31:08;;;;;;;5.70;5.10;;;7.20;99.90;;;;;;5031716;28;20299;-57
2022/12/07 00:33:36;;;;;;;6.77;5.53;;;7.20;99.90;;;;;;5032363;28;20252;-57
2022/12/07 00:36:05;;;;;;;6.43;5.60;;;7.20;99.90;;;;;;5032418;28;20212;-58
2022/12/07 00:38:35;;;;;;;7.27;5.23;;;7.00;99.90;;;;;;5032460;28;20285;-57
2022/12/07 00:41:05;;;;;;;7.70;5.40;;;6.80;99.90;;;;;;5031648;28;20293;-57
2022/12/07 00:43:32;;;;;;;7.40;5.33;;;6.60;99.90;;;;;;5032277;28;20669;-57
2022/12/07 00:45:59;;;;;;;7.57;5.17;;;6.60;99.90;;;;;;5032199;28;20213;-57
2022/12/07 00:48:26;;;;;;;5.60;4.67;;;6.70;99.90;;;;;;5032287;28;20210;-57
2022/12/07 00:50:53;;;;;;;6.67;5.33;;;6.80;99.90;;;;;;5031860;28;20236;-57
2022/12/07 00:53:21;;;;;;;8.17;5.83;;;6.90;99.90;;;;;;5032591;28;20202;-57
2022/12/07 00:55:48;;;;;;;6.60;5.53;;;6.90;99.90;;;;;;5034497;28;20289;-57
2022/12/07 00:58:17;;;;;;;5.80;5.00;;;7.00;99.90;;;;;;5036353;28;20257;-57
2022/12/07 01:00:44;;;;;;;7.37;5.67;;;7.00;99.90;;;;;;5035806;28;20226;-57
2022/12/07 01:03:13;;;;;;;6.97;5.27;;;7.10;99.90;;;;;;5036328;28;20252;-57
2022/12/07 01:05:41;;;;;;;8.53;5.40;;;7.00;99.90;;;;;;5036161;28;20210;-57
2022/12/07 01:08:09;;;;;;;6.73;5.43;;;7.00;99.90;;;;;;5036460;28;20239;-58
2022/12/07 01:10:36;;;;;;;7.60;5.00;;;7.00;99.90;;;;;;5036139;28;20265;-57
2022/12/07 01:13:03;;;;;;;8.63;5.40;;;7.00;99.90;;;;;;5035957;28;20202;-57
2022/12/07 01:15:31;;;;;;;7.43;5.43;;;6.90;99.90;;;;;;5036043;28;20206;-57
2022/12/07 01:17:58;;;;;;;6.30;5.50;;;7.00;99.90;;;;;;5036557;28;20289;-57
2022/12/07 01:20:24;;;;;;;6.83;5.63;;;6.90;99.90;;;;;;5036020;28;20624;-57
2022/12/07 01:22:51;;;;;;;6.57;5.23;;;6.90;99.90;;;;;;5036138;28;20230;-57
2022/12/07 01:25:19;;;;;;;6.67;5.30;;;6.90;99.90;;;;;;5036070;28;20651;-57
2022/12/07 01:27:46;;;;;;;8.73;6.10;;;6.90;99.90;;;;;;5036191;28;20293;-57
2022/12/07 01:30:14;;;;;;;6.67;5.60;;;6.80;99.90;;;;;;5049689;22;20230;-64
2022/12/07 01:32:42;;;;;;;6.77;5.50;;;6.80;99.90;;;;;;5035041;28;20226;-64
2022/12/07 01:35:09;;;;;;;6.27;5.67;;;6.80;99.90;;;;;;5035020;28;20207;-64
2022/12/07 01:37:37;;;;;;;5.37;4.83;;;6.80;99.90;;;;;;5034818;28;20206;-62
2022/12/07 01:40:04;;;;;;;6.07;5.13;;;6.80;99.90;;;;;;5034271;28;20275;-63
2022/12/07 01:42:31;;;;;;;8.37;5.37;;;6.80;99.90;;;;;;5034910;28;20234;-63
2022/12/07 01:45:39;;;;;;;9.87;5.50;;;6.80;99.90;;;;;;5034748;28;20206;-63
2022/12/07 01:48:09;;;;;;;6.30;5.37;;;6.80;99.90;;;;;;5034725;28;20215;-63
2022/12/07 01:50:37;;;;;;;7.00;4.90;;;6.80;99.90;;;;;;5034004;28;20714;-63
2022/12/07 01:53:07;;;;;;;5.53;4.80;;;6.80;99.90;;;;;;5034850;28;20206;-63
2022/12/07 01:55:37;;;;;;;6.97;5.17;;;6.80;99.90;;;;;;5034716;28;20214;-62
2022/12/07 01:58:04;;;;;;;7.67;5.77;;;6.80;99.90;;;;;;5034529;28;20210;-63
2022/12/07 02:00:31;;;;;;;6.57;5.70;;;6.90;99.90;;;;;;5033817;28;20264;-64
2022/12/07 02:03:04;;;;;;;8.43;5.70;;;6.90;99.90;;;;;;5034196;28;20226;-63
2022/12/07 02:05:34;;;;;;;5.70;5.10;;;6.90;99.90;;;;;;5034538;28;20206;-63
2022/12/07 02:08:02;;;;;;;7.57;5.60;;;7.00;99.90;;;;;;5033614;28;20213;-65
2022/12/07 02:10:31;;;;;;;6.27;5.60;;;7.20;99.90;;;;;;5033930;28;20315;-63
2022/12/07 02:13:04;;;;;;;6.50;5.23;;;7.10;99.90;;;;;;5034242;28;20221;-62
2022/12/07 02:15:40;;;;;;;7.93;5.57;;;7.10;99.90;;;;;;5034306;28;20211;-63
2022/12/07 02:18:14;;;;;;;6.00;5.40;;;7.20;99.90;;;;;;5034622;28;20213;-64
2022/12/07 02:20:51;;;;;;;6.23;4.97;;;7.20;99.90;;;;;;5033805;28;20233;-63
2022/12/07 02:23:39;;;;;;;8.40;5.63;;;7.20;99.90;;;;;;5034493;28;20232;-65
2022/12/07 02:26:38;;;;;;;6.97;5.43;;;7.20;99.90;;;;;;5033983;28;20210;-64
2022/12/07 02:29:14;;;;;;;6.73;5.80;;;7.20;99.90;;;;;;5033656;28;20214;-65
2022/12/07 02:31:47;;;;;;;7.33;5.43;;;7.10;99.90;;;;;;5033801;28;20229;-63
2022/12/07 02:34:22;;;;;;;8.27;6.27;;;7.10;99.90;;;;;;5033726;28;20202;-64
2022/12/07 02:36:56;;;;;;;8.40;6.07;;;7.10;99.90;;;;;;5034004;28;20217;-65
2022/12/07 02:39:32;;;;;;;9.60;6.30;;;7.10;99.90;;;;;;5033457;28;20213;-63
2022/12/07 02:42:03;;;;;;;9.23;6.67;;;7.10;99.90;;;;;;5033747;28;20226;-62
2022/12/07 02:44:33;;;;;;;7.90;6.57;;;7.10;99.90;;;;;;5033667;28;20226;-64
2022/12/07 02:47:04;;;;;;;7.00;5.77;;;7.10;99.90;;;;;;5033550;28;20205;-64
2022/12/07 02:49:32;;;;;;;7.73;6.20;;;7.10;99.90;;;;;;5033072;28;20666;-62
2022/12/07 02:51:58;;;;;;;8.90;6.70;;;7.10;99.90;;;;;;5033478;28;20721;-63
2022/12/07 02:54:25;;;;;;;7.80;6.13;;;7.00;99.90;;;;;;5033603;28;20225;-63
2022/12/07 02:56:59;;;;;;;7.90;6.20;;;7.00;99.90;;;;;;5033773;28;20214;-63
2022/12/07 02:59:40;;;;;;;8.80;5.93;;;6.90;99.90;;;;;;5033031;28;20210;-62
2022/12/07 03:02:18;;;;;;;7.43;6.00;;;6.90;99.90;;;;;;5033756;28;20222;-63
2022/12/07 03:04:53;;;;;;;9.83;7.03;;;6.80;99.90;;;;;;5033984;28;20237;-62
2022/12/07 03:07:32;;;;;;;7.10;5.87;;;6.90;99.90;;;;;;5034168;28;20682;-63
2022/12/07 03:10:04;;;;;;;8.07;6.10;;;6.90;99.90;;;;;;5032845;28;20206;-63
2022/12/07 03:12:36;;;;;;;6.50;5.80;;;6.80;99.90;;;;;;5033286;28;20662;-63
2022/12/07 03:15:10;;;;;;;7.77;6.27;;;6.80;99.90;;;;;;5033172;28;20214;-63
2022/12/07 03:17:41;;;;;;;6.93;5.97;;;6.80;99.90;;;;;;5032950;28;20209;-62
2022/12/07 03:20:12;;;;;;;8.50;6.37;;;6.70;99.90;;;;;;5032267;28;20710;-63
2022/12/07 03:22:41;;;;;;;7.67;6.87;;;6.70;99.90;;;;;;5033120;28;20202;-63
2022/12/07 03:25:11;;;;;;;7.27;6.27;;;6.70;99.90;;;;;;5032943;28;20570;-65
2022/12/07 03:27:41;;;;;;;7.87;6.40;;;6.70;99.90;;;;;;5032967;28;20206;-64
2022/12/07 03:30:15;;;;;;;8.03;6.17;;;6.60;99.90;;;;;;5032058;28;20231;-62
2022/12/07 03:32:46;;;;;;;8.17;6.20;;;6.60;99.90;;;;;;5032676;28;20206;-63
2022/12/07 03:35:17;;;;;;;8.07;6.10;;;6.60;99.90;;;;;;5033076;28;20214;-62
2022/12/07 03:37:49;;;;;;;10.17;6.53;;;6.60;99.90;;;;;;5032852;28;20257;-63
2022/12/07 03:40:23;;;;;;;10.87;6.60;;;6.60;99.90;;;;;;5032142;28;20226;-63
2022/12/07 03:42:51;;;;;;;10.87;6.97;;;6.50;99.90;;;;;;5032971;28;20256;-63
2022/12/07 03:45:21;;;;;;;8.77;6.53;;;6.50;99.90;;;;;;5032523;28;20202;-62
2022/12/07 03:47:54;;;;;;;8.20;6.57;;;6.50;99.90;;;;;;5032760;28;20207;-63
2022/12/07 03:50:32;;;;;;;7.63;6.33;;;6.40;99.90;;;;;;5032068;28;20606;-63
2022/12/07 03:53:05;;;;;;;9.73;6.03;;;6.30;99.90;;;;;;5033140;28;20221;-63
2022/12/07 03:55:35;;;;;;;8.73;6.03;;;6.20;99.90;;;;;;5032440;28;20708;-63
2022/12/07 03:58:06;;;;;;;8.30;7.00;;;6.10;99.90;;;;;;5032688;28;20305;-63
2022/12/07 04:00:35;;;;;;;8.00;6.40;;;6.00;99.90;;;;;;5032247;28;20253;-63
2022/12/07 04:03:01;;;;;;;8.43;6.40;;;5.90;99.90;;;;;;5032918;28;20626;-63
2022/12/07 04:05:28;;;;;;;10.23;6.90;;;5.70;99.90;;;;;;5032894;28;20206;-63
2022/12/07 04:07:55;;;;;;;9.77;7.40;;;5.60;99.90;;;;;;5032531;28;20574;-63
2022/12/07 04:10:22;;;;;;;9.57;7.00;;;5.50;99.90;;;;;;5032646;28;20230;-62
2022/12/07 04:12:49;;;;;;;7.87;6.60;;;5.50;99.90;;;;;;5032982;28;20202;-63
2022/12/07 04:15:16;;;;;;;9.40;7.13;;;5.50;99.90;;;;;;5032680;28;20206;-62
2022/12/07 04:17:44;;;;;;;7.20;6.10;;;5.40;99.90;;;;;;5033248;28;20232;-63
2022/12/07 04:20:12;;;;;;;7.90;6.70;;;5.40;99.90;;;;;;5031992;28;20706;-63
2022/12/07 04:22:39;;;;;;;8.53;7.07;;;5.30;99.90;;;;;;5032186;28;20583;-62
2022/12/07 04:25:07;;;;;;;7.27;6.27;;;5.20;99.90;;;;;;5032424;28;20714;-63
2022/12/07 04:27:34;;;;;;;8.87;6.77;;;5.20;99.90;;;;;;5032547;28;20215;-63
2022/12/07 04:30:00;;;;;;;8.83;6.87;;;5.10;99.90;;;;;;5034393;28;20662;-63
2022/12/07 04:32:27;;;;;;;10.13;6.90;;;5.10;99.90;;;;;;5045780;28;20225;-62
2022/12/07 04:34:55;;;;;;;10.20;7.00;;;5.20;99.90;;;;;;5046079;28;20202;-63
2022/12/07 04:37:22;;;;;;;8.27;7.10;;;5.30;99.90;;;;;;5047258;28;20225;-63
2022/12/07 04:39:49;;;;;;;8.27;6.43;;;5.20;99.90;;;;;;5042505;28;20202;-65
2022/12/07 04:42:16;;;;;;;9.37;7.10;;;5.10;99.90;;;;;;5042812;28;20202;-63
2022/12/07 04:44:42;;;;;;;9.77;7.10;;;5.20;99.90;;;;;;5042549;28;20236;-63
2022/12/07 04:47:09;;;;;;;7.80;6.17;;;5.20;99.90;;;;;;5054817;28;20685;-63
2022/12/07 04:49:36;;;;;;;9.07;7.20;;;5.20;99.90;;;;;;5053030;28;20221;-63
2022/12/07 04:52:04;;;;;;;14.77;10.23;;;5.30;99.90;;;;;;5048323;28;20226;-64
2022/12/07 04:54:31;;;;;;;10.47;8.43;;;5.40;99.90;;;;;;5042655;28;20209;-64
2022/12/07 04:56:57;;;;;;;10.30;7.97;;;5.50;99.90;;;;;;5041878;28;20217;-64
2022/12/07 04:59:24;;;;;;;8.53;6.97;;;5.40;99.90;;;;;;5048026;28;20209;-63
2022/12/07 05:01:51;;;;;;;9.60;7.10;;;5.20;99.90;;;;;;5045970;28;20226;-64
2022/12/07 05:04:18;;;;;;;8.63;6.60;;;5.00;99.90;;;;;;5042273;28;20229;-66
2022/12/07 05:06:45;;;;;;;8.83;6.63;;;4.90;99.90;;;;;;5042192;28;20567;-63
2022/12/07 05:09:13;;;;;;;8.53;6.40;;;5.00;99.90;;;;;;5042671;28;20213;-63
2022/12/07 05:11:40;;;;;;;8.50;6.07;;;5.10;99.90;;;;;;5040512;28;20225;-63
2022/12/07 05:14:09;;;;;;;10.00;7.33;;;5.00;99.90;;;;;;5041263;28;20205;-64
2022/12/07 05:16:37;;;;;;;9.67;7.60;;;5.10;99.90;;;;;;5041383;28;20260;-63
2022/12/07 05:19:04;;;;;;;9.80;7.83;;;5.10;99.90;;;;;;5040166;28;20210;-63
2022/12/07 05:21:30;;;;;;;10.67;7.27;;;4.90;99.90;;;;;;5039922;28;20313;-63
2022/12/07 05:23:57;;;;;;;9.33;7.23;;;4.80;99.90;;;;;;5039892;28;20600;-63
2022/12/07 05:26:25;;;;;;;9.33;7.40;;;4.70;99.90;;;;;;5040190;28;20210;-63
2022/12/07 05:28:53;;;;;;;8.80;7.43;;;4.60;99.90;;;;;;5039562;28;20739;-63
2022/12/07 05:31:20;;;;;;;9.10;7.07;;;4.60;99.90;;;;;;5039237;28;20245;-63
2022/12/07 05:33:47;;;;;;;8.63;6.87;;;4.60;99.90;;;;;;5039332;28;20203;-63
2022/12/07 05:36:14;;;;;;;8.77;6.73;;;4.50;99.90;;;;;;5039184;28;20213;-64
2022/12/07 05:38:41;;;;;;;11.77;7.40;;;4.50;99.90;;;;;;5038942;28;20210;-64
2022/12/07 05:42:11;;;;;;;7.87;6.70;;;4.40;99.90;;;;;;5036807;28;20234;-64
2022/12/07 05:43:57;;;;;;;9.57;7.10;;;4.40;99.90;;;;;;5035402;28;20673;-62
2022/12/07 05:46:24;;;;;;;7.97;6.60;;;4.50;99.90;;;;;;5036070;28;20210;-62
2022/12/07 05:48:51;;;;;;;7.93;7.07;;;4.70;99.90;;;;;;5036169;28;20210;-67
2022/12/07 05:51:18;;;;;;;13.90;8.70;;;4.80;99.90;;;;;;5035160;28;20317;-65
2022/12/07 05:53:45;;;;;;;9.70;7.53;;;5.00;99.90;;;;;;5035494;28;20623;-64
2022/12/07 05:56:12;;;;;;;9.17;7.33;;;5.20;99.90;;;;;;5035643;28;20202;-63
2022/12/07 06:01:24;;;;;;;10.03;7.43;;;5.40;99.90;;;;;;5035370;28;20229;-63
2022/12/07 06:03:51;;;;;;;9.70;7.23;;;5.40;99.90;;;;;;5035623;28;20222;-63
2022/12/07 06:06:18;;;;;;;9.90;8.10;;;5.50;99.90;;;;;;5035330;28;20206;-64
2022/12/07 06:08:44;;;;;;;10.30;7.43;;;5.50;99.90;;;;;;5035260;28;20202;-63
2022/12/07 06:13:56;;;;;;;9.50;6.90;;;5.60;99.90;;;;;;5036106;28;20201;-62
2022/12/07 06:16:24;;;;;;;15.30;8.13;;;5.60;99.90;;;;;;5036276;28;20214;-63
2022/12/07 06:18:50;;;;;;;9.83;7.00;;;5.70;99.90;;;;;;5036669;28;20210;-63
2022/12/07 06:21:17;;;;;;;11.50;7.70;;;5.80;99.90;;;;;;5035679;28;20253;-63
2022/12/07 06:23:44;;;;;;;10.03;7.13;;;5.80;99.90;;;;;;5037124;28;20213;-62
2022/12/07 06:26:11;;;;;;;11.10;7.70;;;5.90;99.90;;;;;;5037080;28;20222;-62
2022/12/07 06:28:38;;;;;;;10.40;6.60;;;5.90;99.90;;;;;;5035942;28;20206;-62
2022/12/07 06:31:05;;;;;;;11.80;9.03;;;5.90;99.90;;;;;;5035080;28;20230;-62
2022/12/07 06:33:33;;;;;;;16.33;10.40;;;6.00;99.90;;;;;;5035862;28;20277;-64
2022/12/07 06:35:59;;;;;;;13.60;10.20;;;5.90;99.90;;;;;;5035108;28;20213;-64
2022/12/07 06:38:26;;;;;;;13.43;8.40;;;6.00;99.90;;;;;;5035569;28;20214;-62
2022/12/07 06:40:53;;;;;;;7.90;6.53;;;6.10;99.90;;;;;;5034563;28;20702;-63
2022/12/07 06:43:20;;;;;;;10.60;6.80;;;6.20;99.90;;;;;;5034724;28;20210;-64
2022/12/07 06:45:46;;;;;;;10.93;7.70;;;6.20;99.90;;;;;;5034788;28;20230;-63
2022/12/07 06:48:14;;;;;;;10.03;7.40;;;6.30;99.90;;;;;;5034783;28;20214;-64
2022/12/07 06:50:42;;;;;;;12.07;6.80;;;6.30;99.90;;;;;;5036826;28;20284;-63
2022/12/07 06:53:10;;;;;;;10.60;6.97;;;6.30;99.90;;;;;;5042041;28;20398;-62
2022/12/07 06:55:36;;;;;;;9.20;6.90;;;6.30;99.90;;;;;;5040889;28;20206;-63
2022/12/07 06:58:03;;;;;;;11.33;8.20;;;6.40;99.90;;;;;;5037960;28;20207;-62
2022/12/07 07:00:30;;;;;;;10.80;8.10;;;6.40;99.90;;;;;;5037022;28;20230;-65
2022/12/07 07:02:57;;;;;;;15.23;9.30;;;6.50;99.90;;;;;;5037277;28;20301;-64
2022/12/07 07:05:24;;;;;;;55.10;25.00;;;6.50;99.90;;;;;;5033385;28;20722;-63
2022/12/07 07:07:52;;;;;;;24.63;14.67;;;6.50;99.90;;;;;;5033571;28;20209;-64
2022/12/07 07:10:18;;;;;;;25.87;14.70;;;6.50;99.90;;;;;;5032896;28;20237;-62
2022/12/07 07:12:45;;;;;;;20.63;13.63;;;6.50;99.90;;;;;;5033575;28;20210;-61
2022/12/07 07:15:12;;;;;;;22.83;17.40;;;6.60;99.90;;;;;;5034017;28;20206;-63
2022/12/07 07:17:39;;;;;;;21.73;16.00;;;6.50;99.90;;;;;;5033439;28;20201;-62
2022/12/07 07:20:07;;;;;;;37.10;26.83;;;6.50;99.90;;;;;;5032813;28;20229;-61
2022/12/07 07:22:33;;;;;;;15.03;10.60;;;6.50;99.90;;;;;;5035287;28;20210;-61
2022/12/07 07:25:02;;;;;;;18.93;10.83;;;6.60;99.90;;;;;;5035282;28;20218;-64
2022/12/07 07:27:28;;;;;;;15.47;8.47;;;6.60;99.90;;;;;;5035262;28;20206;-62
2022/12/07 07:29:55;;;;;;;11.20;8.20;;;6.60;99.90;;;;;;5034309;28;20206;-62
2022/12/07 07:32:22;;;;;;;11.17;8.17;;;6.60;99.90;;;;;;5066449;22;20230;-57
2022/12/07 07:34:49;;;;;;;10.63;8.43;;;6.70;99.90;;;;;;5050503;28;20202;-57
2022/12/07 07:37:16;;;;;;;41.57;28.87;;;6.70;99.90;;;;;;5053238;28;20233;-58
2022/12/07 07:39:43;;;;;;;15.53;10.47;;;6.80;99.90;;;;;;5052868;28;20213;-58
2022/12/07 07:42:11;;;;;;;10.00;7.43;;;6.80;99.90;;;;;;5052896;28;20264;-57
2022/12/07 07:44:38;;;;;;;10.27;6.73;;;6.80;99.90;;;;;;5053017;28;20229;-58
2022/12/07 07:47:05;;;;;;;7.77;6.67;;;6.80;99.90;;;;;;5052858;28;20251;-58
2022/12/07 07:49:32;;;;;;;10.40;6.53;;;6.80;99.90;;;;;;5052857;28;20593;-57
2022/12/07 07:51:59;;;;;;;9.77;7.30;;;6.80;99.90;;;;;;5053119;28;20249;-58
2022/12/07 07:54:25;;;;;;;8.03;6.17;;;6.90;99.90;;;;;;5052886;28;20237;-58
2022/12/07 07:56:53;;;;;;;9.93;6.60;;;6.80;99.90;;;;;;5052563;28;20693;-58
2022/12/07 07:59:21;;;;;;;8.10;5.40;;;6.90;99.90;;;;;;5052561;28;20687;-58
2022/12/07 08:01:48;;;;;;;9.33;5.50;;;7.00;99.90;;;;;;5052214;28;20225;-58
2022/12/07 08:04:15;;;;;;;7.27;5.60;;;7.00;99.90;;;;;;5052139;28;20209;-57
2022/12/07 08:06:42;;;;;;;14.17;10.00;;;7.10;99.90;;;;;;5052955;28;20217;-57
2022/12/07 08:09:10;;;;;;;7.60;5.83;;;7.20;99.90;;;;;;5052728;28;20699;-58
2022/12/07 08:11:37;;;;;;;6.80;5.27;;;7.20;99.90;;;;;;5051969;28;20723;-58
2022/12/07 08:14:04;;;;;;;6.17;5.03;;;7.30;99.90;;;;;;5052709;28;20210;-58
2022/12/07 08:16:32;;;;;;;9.30;5.03;;;7.40;99.90;;;;;;5052747;28;20209;-58
2022/12/07 08:18:59;;;;;;;9.70;5.70;;;7.50;99.90;;;;;;5052390;28;20610;-58
2022/12/07 08:21:26;;;;;;;10.73;5.47;;;7.60;99.90;;;;;;5051981;28;20234;-58
2022/12/07 08:23:53;;;;;;;8.37;5.20;;;7.60;99.90;;;;;;5053293;28;20205;-58
2022/12/07 08:26:20;;;;;;;6.47;5.00;;;7.60;99.90;;;;;;5052543;28;20225;-58
2022/12/07 08:28:47;;;;;;;7.87;5.47;;;7.70;99.90;;;;;;5051997;28;20719;-58
2022/12/07 08:31:16;;;;;;;8.57;4.97;;;7.80;99.90;;;;;;5051658;28;20233;-58
2022/12/07 08:33:46;;;;;;;9.83;5.10;;;7.90;99.90;;;;;;5052012;28;20215;-58
2022/12/07 08:36:13;;;;;;;9.73;5.10;;;7.90;99.90;;;;;;5051979;28;20212;-58
2022/12/07 08:38:41;;;;;;;7.17;5.17;;;7.90;99.90;;;;;;5052085;28;20202;-58
2022/12/07 08:41:09;;;;;;;6.63;4.77;;;7.90;99.90;;;;;;5051221;28;20251;-58
2022/12/07 08:43:36;;;;;;;7.70;4.63;;;7.90;99.90;;;;;;5052110;28;20209;-58
2022/12/07 08:46:09;;;;;;;9.70;4.90;;;8.00;99.90;;;;;;5051760;28;20715;-58
2022/12/07 08:48:40;;;;;;;9.83;5.30;;;8.10;99.90;;;;;;5052001;28;20212;-58
2022/12/07 08:51:08;;;;;;;7.63;4.70;;;8.10;99.90;;;;;;5051457;28;20248;-59
2022/12/07 08:53:36;;;;;;;6.43;4.77;;;8.30;99.90;;;;;;5051940;28;20206;-59
2022/12/07 08:56:04;;;;;;;6.80;4.97;;;8.30;99.90;;;;;;5052133;28;20201;-59
2022/12/07 08:58:31;;;;;;;6.17;4.13;;;8.40;99.90;;;;;;5052585;28;20205;-58
2022/12/07 09:00:58;;;;;;;7.73;5.03;;;8.50;99.90;;;;;;5046238;28;20230;-59
2022/12/07 09:03:25;;;;;;;5.00;4.10;;;8.50;99.90;;;;;;5050633;28;20712;-58
2022/12/07 09:05:53;;;;;;;6.47;4.40;;;8.50;99.90;;;;;;5050856;28;20244;-57
2022/12/07 09:08:22;;;;;;;6.50;4.27;;;8.50;99.90;;;;;;5051038;28;20202;-59
2022/12/07 09:10:49;;;;;;;4.73;4.23;;;8.60;99.90;;;;;;5049628;28;20760;-58
2022/12/07 09:13:16;;;;;;;8.30;4.10;;;8.70;99.90;;;;;;5050893;28;20691;-58
2022/12/07 09:15:43;;;;;;;6.60;4.37;;;8.60;99.90;;;;;;5051757;28;20220;-57
2022/12/07 09:18:10;;;;;;;7.07;4.40;;;8.70;99.90;;;;;;5055300;28;20582;-59
2022/12/07 09:20:36;;;;;;;5.10;4.50;;;8.70;99.90;;;;;;5054285;28;20209;-61
2022/12/07 09:23:05;;;;;;;5.57;4.50;;;8.80;99.90;;;;;;5054180;28;20684;-60
2022/12/07 09:25:34;;;;;;;6.30;4.40;;;8.80;99.90;;;;;;5054637;28;20697;-60
2022/12/07 09:28:01;;;;;;;7.23;5.13;;;8.90;99.90;;;;;;5054659;28;20297;-60
2022/12/07 09:30:29;;;;;;;5.90;4.10;;;9.10;99.90;;;;;;5054054;28;20206;-60
2022/12/07 09:32:57;;;;;;;5.80;4.73;;;9.10;99.90;;;;;;5054424;28;20210;-60
2022/12/07 09:35:26;;;;;;;6.47;4.67;;;9.20;99.90;;;;;;5054715;28;20205;-60
2022/12/07 09:37:53;;;;;;;5.73;4.23;;;9.20;99.90;;;;;;5055703;28;20212;-62
2022/12/07 09:40:22;;;;;;;6.27;4.60;;;9.30;99.90;;;;;;5054332;28;20216;-62
2022/12/07 09:42:53;;;;;;;10.50;7.30;;;9.30;99.90;;;;;;5054257;28;20263;-60
2022/12/07 09:45:23;;;;;;;6.60;4.93;;;9.30;99.90;;;;;;5054355;28;20222;-60
2022/12/07 09:47:51;;;;;;;8.80;5.13;;;9.40;99.90;;;;;;5054081;28;20209;-61
2022/12/07 09:50:22;;;;;;;7.40;4.90;;;9.50;99.90;;;;;;5053990;28;20211;-62
2022/12/07 09:52:50;;;;;;;10.03;5.20;;;9.50;99.90;;;;;;5054855;28;20213;-59
2022/12/07 09:55:23;;;;;;;7.20;4.97;;;9.60;99.90;;;;;;5054649;28;20566;-60
2022/12/07 09:57:53;;;;;;;7.23;5.03;;;9.70;99.90;;;;;;5054275;28;20584;-60
2022/12/07 10:00:22;;;;;;;7.30;4.57;;;9.60;99.90;;;;;;5052971;28;20215;-63
2022/12/07 10:02:53;;;;;;;10.10;4.70;;;9.60;99.90;;;;;;5054203;28;20500;-62
2022/12/07 10:05:23;;;;;;;7.20;5.10;;;9.70;99.90;;;;;;5055734;28;20221;-62
2022/12/07 10:07:50;;;;;;;16.10;8.97;;;9.70;99.90;;;;;;5054795;28;20216;-62
2022/12/07 10:10:24;;;;;;;6.17;4.87;;;9.60;99.90;;;;;;5054615;28;20205;-62
2022/12/07 10:12:57;;;;;;;7.83;4.87;;;9.60;99.90;;;;;;5055639;28;20201;-57
2022/12/07 10:15:41;;;;;;;6.73;4.70;;;9.50;99.90;;;;;;5055346;28;20215;-57
2022/12/07 10:18:19;;;;;;;5.33;4.10;;;9.40;99.90;;;;;;5055240;28;20210;-57
2022/12/07 10:20:47;;;;;;;8.00;4.03;;;9.30;99.90;;;;;;5054017;28;20691;-58
2022/12/07 10:23:17;;;;;;;4.90;3.73;;;9.20;99.90;;;;;;5055876;28;20216;-58
2022/12/07 10:25:44;;;;;;;6.43;4.10;;;9.20;99.90;;;;;;5054268;28;20241;-57
2022/12/07 10:28:17;;;;;;;4.53;3.73;;;8.90;99.90;;;;;;5053550;28;20296;-56
2022/12/07 10:30:53;;;;;;;7.07;3.60;;;8.90;99.90;;;;;;5053336;28;20605;-57
2022/12/07 10:33:39;;;;;;;6.57;3.60;;;8.90;99.90;;;;;;5054400;28;20592;-57
2022/12/07 10:36:22;;;;;;;8.73;3.43;;;8.90;99.90;;;;;;5054183;28;20204;-57
2022/12/07 10:38:51;;;;;;;5.93;4.10;;;8.90;99.90;;;;;;5054637;28;20209;-56
2022/12/07 10:41:19;;;;;;;5.00;3.80;;;8.90;99.90;;;;;;5053878;28;20229;-56
2022/12/07 10:43:53;;;;;;;4.70;3.60;;;9.00;99.90;;;;;;5054392;28;20205;-56
2022/12/07 10:46:53;;;;;;;5.13;3.77;;;9.00;99.90;;;;;;5054653;28;20238;-56
2022/12/07 10:50:02;;;;;;;5.03;3.80;;;9.10;99.90;;;;;;5054419;28;20561;-56
2022/12/07 10:53:06;;;;;;;6.70;4.10;;;9.10;99.90;;;;;;5055306;28;20225;-56
2022/12/07 10:55:45;;;;;;;5.90;3.70;;;9.00;99.90;;;;;;5034746;28;20213;-57
2022/12/07 10:58:32;;;;;;;6.07;4.00;;;8.90;99.90;;;;;;5055042;28;20205;-56
2022/12/07 11:01:11;;;;;;;6.43;4.03;;;8.80;99.90;;;;;;5054746;28;20246;-56
2022/12/07 11:03:54;;;;;;;8.10;4.80;;;8.60;99.90;;;;;;5055148;28;20202;-57
2022/12/07 11:06:31;;;;;;;5.20;4.00;;;8.60;99.90;;;;;;5054381;28;20229;-57
2022/12/07 11:09:04;;;;;;;5.47;4.60;;;8.80;99.90;;;;;;5055615;28;20205;-57
2022/12/07 11:11:37;;;;;;;10.60;5.83;;;8.80;99.90;;;;;;5055059;28;20249;-57
2022/12/07 11:14:15;;;;;;;7.80;4.80;;;8.80;99.90;;;;;;5055984;28;20296;-57
2022/12/07 11:16:53;;;;;;;7.67;4.13;;;8.90;99.90;;;;;;5055920;28;20748;-56
2022/12/07 11:19:40;;;;;;;5.20;4.17;;;8.90;99.90;;;;;;5055454;28;20216;-56
2022/12/07 11:22:14;;;;;;;5.47;4.50;;;8.90;99.90;;;;;;5054613;28;20222;-56
2022/12/07 11:24:49;;;;;;;5.53;4.47;;;9.20;99.90;;;;;;5054982;28;20553;-56
2022/12/07 11:27:27;;;;;;;6.50;3.83;;;9.10;99.90;;;;;;5055623;28;20217;-57
2022/12/07 11:30:17;;;;;;;7.60;4.17;;;9.00;99.90;;;;;;5054430;28;20213;-58
2022/12/07 11:32:59;;;;;;;5.40;4.13;;;9.00;99.90;;;;;;5055181;28;20237;-58
2022/12/07 11:35:33;;;;;;;5.13;4.03;;;8.90;99.90;;;;;;5054706;28;20201;-57
2022/12/07 11:38:03;;;;;;;4.43;3.53;;;8.90;99.90;;;;;;5053982;28;20220;-57
2022/12/07 11:40:35;;;;;;;4.73;3.70;;;8.80;99.90;;;;;;5052459;28;20210;-60
2022/12/07 11:43:07;;;;;;;6.77;4.17;;;8.60;99.90;;;;;;5053955;28;20205;-57
2022/12/07 11:45:36;;;;;;;6.80;4.00;;;8.50;99.90;;;;;;5053670;28;20229;-57
2022/12/07 11:48:08;;;;;;;5.70;3.90;;;8.50;99.90;;;;;;5053196;28;20213;-58
2022/12/07 11:50:40;;;;;;;6.27;4.60;;;8.60;99.90;;;;;;5052810;28;20271;-56
2022/12/07 11:53:15;;;;;;;5.73;4.40;;;8.80;99.90;;;;;;5053750;28;20209;-57
2022/12/07 11:55:48;;;;;;;4.43;3.80;;;9.00;99.90;;;;;;5053830;28;20300;-57
2022/12/07 11:58:40;;;;;;;6.20;4.10;;;9.00;99.90;;;;;;5053295;28;20206;-60
2022/12/07 12:01:15;;;;;;;6.20;4.60;;;9.00;99.90;;;;;;5052657;28;20249;-57
2022/12/07 12:03:47;;;;;;;5.30;4.13;;;9.10;99.90;;;;;;5053038;28;20209;-55
2022/12/07 12:06:15;;;;;;;5.73;4.07;;;9.10;99.90;;;;;;5053059;28;20233;-55
2022/12/07 12:08:46;;;;;;;5.47;3.93;;;9.20;99.90;;;;;;5052935;28;20304;-56
2022/12/07 12:11:30;;;;;;;5.57;4.47;;;9.20;99.90;;;;;;5052034;28;20779;-56
2022/12/07 12:14:22;;;;;;;5.27;4.67;;;9.30;99.90;;;;;;5052333;28;20292;-55
2022/12/07 12:17:18;;;;;;;6.00;5.03;;;9.40;99.90;;;;;;5052500;28;20289;-57
2022/12/07 12:20:01;;;;;;;7.03;5.27;;;9.10;99.90;;;;;;5052085;28;20205;-56
2022/12/07 12:22:37;;;;;;;6.57;5.00;;;8.90;99.90;;;;;;5052442;28;20230;-55
2022/12/07 12:25:07;;;;;;;6.53;5.17;;;9.00;99.90;;;;;;5052845;28;20205;-55
2022/12/07 12:27:36;;;;;;;7.13;5.17;;;9.20;99.90;;;;;;5052623;28;20271;-54
2022/12/07 12:30:07;;;;;;;6.53;5.20;;;9.40;99.90;;;;;;5052495;28;20293;-56
2022/12/07 12:32:39;;;;;;;8.57;5.63;;;9.50;99.90;;;;;;5053008;28;20244;-55
2022/12/07 12:35:30;;;;;;;8.20;5.60;;;9.50;99.90;;;;;;5053075;28;20212;-55
2022/12/07 12:38:34;;;;;;;6.57;5.00;;;9.60;99.90;;;;;;5053067;28;20240;-55
2022/12/07 12:41:02;;;;;;;7.40;5.77;;;9.40;99.90;;;;;;5052729;28;20233;-55
2022/12/07 12:43:48;;;;;;;8.23;5.27;;;9.40;99.90;;;;;;5052976;28;20213;-55
2022/12/07 12:46:48;;;;;;;14.47;9.53;;;9.40;99.90;;;;;;5052251;28;20727;-55
2022/12/07 12:49:59;;;;;;;7.57;5.97;;;9.50;99.90;;;;;;5052493;28;20304;-56
2022/12/07 12:53:02;;;;;;;6.50;5.23;;;9.50;99.90;;;;;;5055677;28;20232;-55
2022/12/07 12:56:04;;;;;;;7.13;5.30;;;9.30;99.90;;;;;;5053304;28;20216;-55
2022/12/07 12:58:35;;;;;;;7.97;5.53;;;9.30;99.90;;;;;;5051094;28;20255;-55
2022/12/07 13:01:44;;;;;;;7.33;5.90;;;9.30;99.90;;;;;;5056048;28;20233;-55
2022/12/07 13:04:48;;;;;;;8.40;5.73;;;9.10;99.90;;;;;;5056630;28;20565;-55
2022/12/07 13:07:53;;;;;;;7.30;5.70;;;9.10;99.90;;;;;;5056445;28;20577;-54
2022/12/07 13:10:37;;;;;;;7.70;5.47;;;9.20;99.90;;;;;;5055838;28;20673;-56
2022/12/07 13:13:30;;;;;;;9.53;5.90;;;9.30;99.90;;;;;;5056872;28;20215;-55
2022/12/07 13:16:40;;;;;;;7.97;5.23;;;9.20;99.90;;;;;;5056029;28;20202;-56
2022/12/07 13:20:01;;;;;;;7.30;6.00;;;9.10;99.90;;;;;;5056520;28;20205;-56
2022/12/07 13:22:50;;;;;;;7.83;6.03;;;9.00;99.90;;;;;;5055478;28;20299;-55
2022/12/07 13:25:29;;;;;;;9.47;6.00;;;8.80;99.90;;;;;;5056052;28;20210;-55